createdAt,value
2016-04-12T00:00:27.767Z,994.71
2016-04-12T00:01:27.800Z,994.67
2016-04-12T00:02:27.803Z,994.67
2016-04-12T00:03:27.821Z,994.67
2016-04-12T00:04:27.839Z,994.7
2016-04-12T00:05:27.858Z,994.63
2016-04-12T00:06:27.875Z,994.59
2016-04-12T00:07:27.894Z,994.61
2016-04-12T00:08:27.902Z,994.61
2016-04-12T00:09:27.926Z,994.57
2016-04-12T00:10:27.945Z,994.59
2016-04-12T00:11:27.948Z,994.57
2016-04-12T00:12:27.966Z,994.61
2016-04-12T00:13:28.000Z,994.59
2016-04-12T00:14:28.003Z,994.62
2016-04-12T00:15:28.020Z,994.57
2016-04-12T00:16:28.055Z,994.63
2016-04-12T00:17:28.057Z,994.56
2016-04-12T00:18:28.075Z,994.53
2016-04-12T00:19:28.078Z,994.54
2016-04-12T00:20:28.096Z,994.48
2016-04-12T00:21:28.130Z,994.53
2016-04-12T00:22:28.132Z,994.47
2016-04-12T00:23:28.152Z,994.48
2016-04-12T00:24:28.169Z,994.47
2016-04-12T00:25:28.204Z,994.44
2016-04-12T00:26:28.206Z,994.41
2016-04-12T00:27:28.241Z,994.4
2016-04-12T00:28:28.226Z,994.4
2016-04-12T00:29:28.246Z,994.35
2016-04-12T00:30:28.278Z,994.3
2016-04-12T00:31:28.296Z,994.24
2016-04-12T00:32:28.312Z,994.27
2016-04-12T00:33:28.314Z,994.25
2016-04-12T00:34:28.332Z,994.31
2016-04-12T00:35:28.350Z,994.3
2016-04-12T00:36:28.368Z,994.25
2016-04-12T00:37:28.387Z,994.25
2016-04-12T00:38:28.406Z,994.23
2016-04-12T00:39:28.409Z,994.25
2016-04-12T00:40:28.426Z,994.23
2016-04-12T00:41:28.445Z,994.21
2016-04-12T00:42:28.463Z,994.23
2016-04-12T00:43:28.482Z,994.19
2016-04-12T00:44:28.500Z,994.16
2016-04-12T00:45:28.517Z,994.24
2016-04-12T00:46:28.615Z,994.25
2016-04-12T00:47:28.555Z,994.26
2016-04-12T00:48:28.573Z,994.23
2016-04-12T00:49:28.575Z,994.26
2016-04-12T00:50:28.595Z,994.22
2016-04-12T00:51:28.613Z,994.25
2016-04-12T00:52:28.631Z,994.2
2016-04-12T00:53:28.649Z,994.22
2016-04-12T00:54:28.667Z,994.23
2016-04-12T00:55:28.686Z,994.28
2016-04-12T00:56:28.689Z,994.26
2016-04-12T00:57:28.707Z,994.28
2016-04-12T00:58:28.724Z,994.25
2016-04-12T00:59:28.744Z,994.26
2016-04-12T01:00:28.762Z,994.25
2016-04-12T01:01:28.779Z,994.21
2016-04-12T01:02:28.799Z,994.22
2016-04-12T01:03:28.816Z,994.2
2016-04-12T01:04:28.835Z,994.19
2016-04-12T01:05:28.837Z,994.14
2016-04-12T01:06:28.856Z,994.19
2016-04-12T01:07:28.874Z,994.12
2016-04-12T01:08:28.893Z,994.14
2016-04-12T01:09:28.911Z,994.15
2016-04-12T01:10:28.929Z,994.16
2016-04-12T01:11:28.948Z,994.15
2016-04-12T01:12:28.951Z,994.13
2016-04-12T01:13:28.968Z,994.13
2016-04-12T01:14:29.002Z,994.1
2016-04-12T01:15:29.005Z,994.06
2016-04-12T01:16:29.039Z,994.03
2016-04-12T01:17:29.042Z,994.02
2016-04-12T01:18:29.060Z,993.98
2016-04-12T01:19:29.078Z,993.97
2016-04-12T01:20:29.097Z,993.97
2016-04-12T01:21:29.099Z,993.98
2016-04-12T01:22:29.117Z,993.93
2016-04-12T01:23:29.136Z,993.86
2016-04-12T01:24:29.155Z,993.89
2016-04-12T01:25:29.172Z,993.86
2016-04-12T01:26:29.191Z,993.84
2016-04-12T01:27:29.210Z,993.83
2016-04-12T01:28:29.212Z,993.81
2016-04-12T01:29:29.246Z,993.84
2016-04-12T01:30:29.249Z,993.81
2016-04-12T01:31:29.266Z,993.84
2016-04-12T01:32:29.285Z,993.79
2016-04-12T01:33:29.288Z,993.84
2016-04-12T01:34:29.321Z,993.9
2016-04-12T01:35:29.324Z,993.92
2016-04-12T01:36:29.343Z,993.97
2016-04-12T01:37:29.361Z,993.97
2016-04-12T01:38:29.379Z,993.94
2016-04-12T01:39:29.398Z,993.86
2016-04-12T01:40:29.415Z,993.87
2016-04-12T01:41:29.418Z,993.83
2016-04-12T01:42:29.437Z,993.89
2016-04-12T01:43:29.455Z,993.93
2016-04-12T01:44:29.474Z,993.97
2016-04-12T01:45:29.492Z,993.96
2016-04-12T01:46:29.511Z,994
2016-04-12T01:47:29.528Z,993.97
2016-04-12T01:48:29.547Z,993.98
2016-04-12T01:49:29.565Z,993.94
2016-04-12T01:50:29.567Z,993.96
2016-04-12T01:51:29.586Z,994.01
2016-04-12T01:52:29.605Z,994
2016-04-12T01:53:29.622Z,993.96
2016-04-12T01:54:29.641Z,994.01
2016-04-12T01:55:29.660Z,993.96
2016-04-12T01:56:29.663Z,993.92
2016-04-12T01:57:29.681Z,993.9
2016-04-12T01:58:29.699Z,993.87
2016-04-12T01:59:29.716Z,993.86
2016-04-12T02:00:29.736Z,993.79
2016-04-12T02:01:29.754Z,993.85
2016-04-12T02:02:29.772Z,993.78
2016-04-12T02:03:29.791Z,993.8
2016-04-12T02:04:29.793Z,993.79
2016-04-12T02:05:29.812Z,993.79
2016-04-12T02:06:29.829Z,993.79
2016-04-12T02:07:29.848Z,993.77
2016-04-12T02:08:29.866Z,993.82
2016-04-12T02:09:29.884Z,993.75
2016-04-12T02:10:29.903Z,993.74
2016-04-12T02:11:29.905Z,993.77
2016-04-12T02:12:29.923Z,993.74
2016-04-12T02:13:29.942Z,993.72
2016-04-12T02:14:29.961Z,993.71
2016-04-12T02:15:29.978Z,993.73
2016-04-12T02:16:29.997Z,993.72
2016-04-12T02:17:30.015Z,993.72
2016-04-12T02:18:30.034Z,993.7
2016-04-12T02:19:30.037Z,993.7
2016-04-12T02:20:30.055Z,993.7
2016-04-12T02:21:30.073Z,993.72
2016-04-12T02:22:30.092Z,993.72
2016-04-12T02:23:30.110Z,993.75
2016-04-12T02:24:30.128Z,993.72
2016-04-12T02:25:30.147Z,993.69
2016-04-12T02:26:30.149Z,993.7
2016-04-12T02:27:30.167Z,993.69
2016-04-12T02:28:30.185Z,993.66
2016-04-12T02:29:30.204Z,993.66
2016-04-12T02:30:30.207Z,993.66
2016-04-12T02:31:30.240Z,993.65
2016-04-12T02:32:30.243Z,993.62
2016-04-12T02:34:30.280Z,993.56
2016-04-12T02:35:30.299Z,993.53
2016-04-12T02:36:30.317Z,993.56
2016-04-12T02:38:30.338Z,993.51
2016-04-12T02:39:30.356Z,993.53
2016-04-12T02:40:30.374Z,993.5
2016-04-12T02:41:30.393Z,993.5
2016-04-12T02:42:30.411Z,993.52
2016-04-12T02:43:30.429Z,993.52
2016-04-12T02:44:30.448Z,993.56
2016-04-12T02:45:30.451Z,993.51
2016-04-12T02:46:30.468Z,993.54
2016-04-12T02:47:30.487Z,993.59
2016-04-12T02:48:30.505Z,993.57
2016-04-12T02:49:30.539Z,993.59
2016-04-12T02:50:30.542Z,993.6
2016-04-12T02:51:30.560Z,993.58
2016-04-12T02:52:30.563Z,993.56
2016-04-12T02:53:30.581Z,993.55
2016-04-12T02:54:30.599Z,993.54
2016-04-12T02:55:30.617Z,993.53
2016-04-12T02:56:30.636Z,993.48
2016-04-12T02:57:30.654Z,993.46
2016-04-12T02:58:30.672Z,993.4
2016-04-12T02:59:30.674Z,993.39
2016-04-12T03:00:30.693Z,993.46
2016-04-12T03:02:30.730Z,993.47
2016-04-12T03:03:30.748Z,993.51
2016-04-12T03:04:30.766Z,993.48
2016-04-12T03:05:30.785Z,993.48
2016-04-12T03:06:30.787Z,993.42
2016-04-12T03:07:30.806Z,993.41
2016-04-12T03:08:30.824Z,993.36
2016-04-12T03:09:30.842Z,993.34
2016-04-12T03:10:30.861Z,993.34
2016-04-12T03:11:30.879Z,993.38
2016-04-12T03:12:30.882Z,993.36
2016-04-12T03:13:30.901Z,993.33
2016-04-12T03:14:30.918Z,993.3
2016-04-12T03:15:30.937Z,993.35
2016-04-12T03:16:30.970Z,993.39
2016-04-12T03:17:30.973Z,993.47
2016-04-12T03:18:30.992Z,993.46
2016-04-12T03:19:31.010Z,993.52
2016-04-12T03:20:31.029Z,993.52
2016-04-12T03:21:31.032Z,993.47
2016-04-12T03:22:31.050Z,993.48
2016-04-12T03:23:31.068Z,993.55
2016-04-12T03:24:31.086Z,993.56
2016-04-12T03:25:31.089Z,993.61
2016-04-12T03:26:31.123Z,993.57
2016-04-12T03:27:31.125Z,993.56
2016-04-12T03:28:31.144Z,993.53
2016-04-12T03:29:31.162Z,993.53
2016-04-12T03:30:31.196Z,993.52
2016-04-12T03:31:31.199Z,993.5
2016-04-12T03:32:31.201Z,993.52
2016-04-12T03:33:31.219Z,993.52
2016-04-12T03:34:31.238Z,993.5
2016-04-12T03:35:31.257Z,993.48
2016-04-12T03:36:31.274Z,993.47
2016-04-12T03:37:31.293Z,993.45
2016-04-12T03:38:31.312Z,993.42
2016-04-12T03:39:31.315Z,993.4
2016-04-12T03:40:31.333Z,993.39
2016-04-12T03:41:31.351Z,993.39
2016-04-12T03:42:31.369Z,993.4
2016-04-12T03:43:31.387Z,993.38
2016-04-12T03:44:31.406Z,993.39
2016-04-12T03:45:31.424Z,993.39
2016-04-12T03:46:31.442Z,993.37
2016-04-12T03:47:31.445Z,993.37
2016-04-12T03:48:31.463Z,993.36
2016-04-12T03:49:31.481Z,993.37
2016-04-12T03:50:31.500Z,993.37
2016-04-12T03:51:31.517Z,993.34
2016-04-12T03:52:31.536Z,993.35
2016-04-12T03:53:31.555Z,993.33
2016-04-12T03:54:31.558Z,993.31
2016-04-12T03:55:31.576Z,993.28
2016-04-12T03:56:31.594Z,993.27
2016-04-12T03:57:31.613Z,993.31
2016-04-12T03:58:31.630Z,993.31
2016-04-12T03:59:31.650Z,993.29
2016-04-12T04:00:31.652Z,993.31
2016-04-12T04:01:31.670Z,993.28
2016-04-12T04:02:31.688Z,993.26
2016-04-12T04:03:31.707Z,993.25
2016-04-12T04:04:31.725Z,993.26
2016-04-12T04:05:31.744Z,993.21
2016-04-12T04:06:31.762Z,993.25
2016-04-12T04:07:31.779Z,993.21
2016-04-12T04:08:31.782Z,993.25
2016-04-12T04:09:31.802Z,993.3
2016-04-12T04:10:31.835Z,993.25
2016-04-12T04:11:31.838Z,993.25
2016-04-12T04:12:31.856Z,993.26
2016-04-12T04:13:31.874Z,993.27
2016-04-12T04:14:31.893Z,993.23
2016-04-12T04:15:31.895Z,993.21
2016-04-12T04:16:31.914Z,993.23
2016-04-12T04:17:31.931Z,993.16
2016-04-12T04:18:31.951Z,993.19
2016-04-12T04:19:31.968Z,993.2
2016-04-12T04:20:31.987Z,993.21
2016-04-12T04:21:32.005Z,993.21
2016-04-12T04:22:32.023Z,993.24
2016-04-12T04:23:32.042Z,993.24
2016-04-12T04:24:32.044Z,993.23
2016-04-12T04:25:32.063Z,993.23
2016-04-12T04:26:32.081Z,993.23
2016-04-12T04:27:32.100Z,993.21
2016-04-12T04:28:32.117Z,993.21
2016-04-12T04:29:32.136Z,993.21
2016-04-12T04:30:32.139Z,993.26
2016-04-12T04:31:32.157Z,993.33
2016-04-12T04:32:32.191Z,993.35
2016-04-12T04:33:32.194Z,993.37
2016-04-12T04:34:32.212Z,993.37
2016-04-12T04:35:32.230Z,993.45
2016-04-12T04:36:32.232Z,993.43
2016-04-12T04:37:32.252Z,993.43
2016-04-12T04:38:32.269Z,993.46
2016-04-12T04:39:32.288Z,993.42
2016-04-12T04:40:32.307Z,993.43
2016-04-12T04:41:32.324Z,993.39
2016-04-12T04:42:32.343Z,993.4
2016-04-12T04:43:32.346Z,993.37
2016-04-12T04:44:32.364Z,993.38
2016-04-12T04:45:32.382Z,993.36
2016-04-12T04:46:32.401Z,993.33
2016-04-12T04:47:32.434Z,993.34
2016-04-12T04:48:32.437Z,993.32
2016-04-12T04:49:32.456Z,993.3
2016-04-12T04:50:32.459Z,993.34
2016-04-12T04:51:32.492Z,993.35
2016-04-12T04:52:32.495Z,993.36
2016-04-12T04:53:32.513Z,993.38
2016-04-12T04:54:32.532Z,993.35
2016-04-12T04:55:32.550Z,993.3
2016-04-12T04:56:32.568Z,993.3
2016-04-12T04:57:32.570Z,993.28
2016-04-12T04:58:32.604Z,993.28
2016-04-12T04:59:32.623Z,993.27
2016-04-12T05:00:32.625Z,993.26
2016-04-12T05:01:32.644Z,993.29
2016-04-12T05:02:32.678Z,993.31
2016-04-12T05:03:32.680Z,993.33
2016-04-12T05:04:32.699Z,993.29
2016-04-12T05:05:32.717Z,993.28
2016-04-12T05:06:32.736Z,993.32
2016-04-12T05:07:32.754Z,993.38
2016-04-12T05:08:32.929Z,993.36
2016-04-12T05:09:32.775Z,993.35
2016-04-12T05:10:32.788Z,993.39
2016-04-12T05:11:32.806Z,993.36
2016-04-12T05:12:32.823Z,993.36
2016-04-12T05:13:32.843Z,993.33
2016-04-12T05:14:32.861Z,993.29
2016-04-12T05:15:32.878Z,993.3
2016-04-12T05:16:32.898Z,993.29
2016-04-12T05:17:32.931Z,993.29
2016-04-12T05:18:32.918Z,993.31
2016-04-12T05:19:32.936Z,993.3
2016-04-12T05:20:32.955Z,993.33
2016-04-12T05:21:32.973Z,993.33
2016-04-12T05:22:32.991Z,993.33
2016-04-12T05:23:33.010Z,993.37
2016-04-12T05:24:33.028Z,993.39
2016-04-12T05:25:33.047Z,993.39
2016-04-12T05:26:33.050Z,993.39
2016-04-12T05:27:33.067Z,993.34
2016-04-12T05:28:33.086Z,993.39
2016-04-12T05:29:33.104Z,993.42
2016-04-12T05:30:33.122Z,993.39
2016-04-12T05:31:33.141Z,993.46
2016-04-12T05:32:33.159Z,993.46
2016-04-12T05:33:33.193Z,993.51
2016-04-12T05:34:33.195Z,993.46
2016-04-12T05:35:33.214Z,993.47
2016-04-12T05:36:33.232Z,993.52
2016-04-12T05:37:33.250Z,993.49
2016-04-12T05:38:33.254Z,993.48
2016-04-12T05:39:33.271Z,993.52
2016-04-12T05:40:33.290Z,993.5
2016-04-12T05:41:33.309Z,993.53
2016-04-12T05:42:33.326Z,993.56
2016-04-12T05:43:33.345Z,993.62
2016-04-12T05:44:33.362Z,993.63
2016-04-12T05:45:33.382Z,993.66
2016-04-12T05:46:33.400Z,993.67
2016-04-12T05:47:33.418Z,993.7
2016-04-12T05:48:33.436Z,993.68
2016-04-12T05:49:33.455Z,993.73
2016-04-12T05:50:33.458Z,993.69
2016-04-12T05:51:33.475Z,993.73
2016-04-12T05:52:33.494Z,993.68
2016-04-12T05:53:33.512Z,993.71
2016-04-12T05:54:33.531Z,993.7
2016-04-12T05:55:33.549Z,993.72
2016-04-12T05:56:33.567Z,993.71
2016-04-12T05:57:33.586Z,993.77
2016-04-12T05:58:33.604Z,993.78
2016-04-12T05:59:33.607Z,993.76
2016-04-12T06:00:33.625Z,993.8
2016-04-12T06:01:33.643Z,993.79
2016-04-12T06:02:33.661Z,993.76
2016-04-12T06:03:33.680Z,993.79
2016-04-12T06:04:33.699Z,993.76
2016-04-12T06:05:33.716Z,993.77
2016-04-12T06:06:33.734Z,993.76
2016-04-12T06:07:33.754Z,993.77
2016-04-12T06:08:33.771Z,993.76
2016-04-12T06:09:33.790Z,993.76
2016-04-12T06:10:33.808Z,993.72
2016-04-12T06:11:33.826Z,993.78
2016-04-12T06:12:33.845Z,993.7
2016-04-12T06:13:33.862Z,993.78
2016-04-12T06:14:33.881Z,993.74
2016-04-12T06:15:33.884Z,993.78
2016-04-12T06:16:33.903Z,993.75
2016-04-12T06:17:33.936Z,993.73
2016-04-12T06:18:33.939Z,993.74
2016-04-12T06:19:33.973Z,993.74
2016-04-12T06:20:33.975Z,993.74
2016-04-12T06:21:33.994Z,993.72
2016-04-12T06:22:34.028Z,993.7
2016-04-12T06:23:34.031Z,993.73
2016-04-12T06:24:34.049Z,993.68
2016-04-12T06:25:34.067Z,993.7
2016-04-12T06:26:34.086Z,993.7
2016-04-12T06:27:34.103Z,993.72
2016-04-12T06:28:34.121Z,993.71
2016-04-12T06:29:34.141Z,993.73
2016-04-12T06:30:34.158Z,993.7
2016-04-12T06:31:34.177Z,993.74
2016-04-12T06:32:34.196Z,993.71
2016-04-12T06:33:34.213Z,993.74
2016-04-12T06:34:34.232Z,993.75
2016-04-12T06:35:34.250Z,993.8
2016-04-12T06:36:34.269Z,993.78
2016-04-12T06:37:34.287Z,993.83
2016-04-12T06:38:34.305Z,993.81
2016-04-12T06:39:34.324Z,993.8
2016-04-12T06:40:34.343Z,993.79
2016-04-12T06:41:34.360Z,993.8
2016-04-12T06:42:34.378Z,993.75
2016-04-12T06:43:34.396Z,993.79
2016-04-12T06:44:34.415Z,993.75
2016-04-12T06:45:34.434Z,993.74
2016-04-12T06:46:34.451Z,993.74
2016-04-12T06:47:34.470Z,993.83
2016-04-12T06:48:34.489Z,993.85
2016-04-12T06:49:34.506Z,993.87
2016-04-12T06:50:34.525Z,993.85
2016-04-12T06:51:34.543Z,993.86
2016-04-12T06:52:34.562Z,993.83
2016-04-12T06:53:34.595Z,993.83
2016-04-12T06:54:34.614Z,993.85
2016-04-12T06:55:34.617Z,993.9
2016-04-12T06:56:34.651Z,993.92
2016-04-12T06:57:34.669Z,993.9
2016-04-12T06:58:34.687Z,993.91
2016-04-12T06:59:34.705Z,993.88
2016-04-12T07:00:34.724Z,993.87
2016-04-12T07:01:34.741Z,993.88
2016-04-12T07:02:34.760Z,993.86
2016-04-12T07:03:34.779Z,993.87
2016-04-12T07:04:34.797Z,993.87
2016-04-12T07:05:34.815Z,993.82
2016-04-12T07:06:34.833Z,993.88
2016-04-12T07:07:34.899Z,993.83
2016-04-12T07:08:34.901Z,993.83
2016-04-12T07:09:34.888Z,993.85
2016-04-12T07:10:34.907Z,993.88
2016-04-12T07:11:34.925Z,993.83
2016-04-12T07:12:34.943Z,993.83
2016-04-12T07:13:34.962Z,993.85
2016-04-12T07:14:34.980Z,993.88
2016-04-12T07:15:35.014Z,993.83
2016-04-12T07:16:35.032Z,993.8
2016-04-12T07:17:35.051Z,993.83
2016-04-12T07:18:35.069Z,993.81
2016-04-12T07:19:35.103Z,993.78
2016-04-12T07:20:35.106Z,993.78
2016-04-12T07:21:35.124Z,993.79
2016-04-12T07:22:35.142Z,993.82
2016-04-12T07:23:35.161Z,993.87
2016-04-12T07:24:35.178Z,993.87
2016-04-12T07:25:35.197Z,993.86
2016-04-12T07:26:35.216Z,993.81
2016-04-12T07:27:35.234Z,993.86
2016-04-12T07:28:35.267Z,993.86
2016-04-12T07:29:35.286Z,993.84
2016-04-12T07:30:35.305Z,993.9
2016-04-12T07:31:35.322Z,993.91
2016-04-12T07:32:35.341Z,993.9
2016-04-12T07:33:35.360Z,993.87
2016-04-12T07:34:35.378Z,993.89
2016-04-12T07:35:35.396Z,993.84
2016-04-12T07:36:35.413Z,993.84
2016-04-12T07:37:35.433Z,993.83
2016-04-12T07:38:35.451Z,993.85
2016-04-12T07:39:35.485Z,993.85
2016-04-12T07:40:35.488Z,993.89
2016-04-12T07:41:35.521Z,993.93
2016-04-12T07:42:35.543Z,993.95
2016-04-12T07:43:35.609Z,994.03
2016-04-12T07:44:35.676Z,994.02
2016-04-12T07:45:35.742Z,994.04
2016-04-12T07:46:35.809Z,994.05
2016-04-12T07:47:35.873Z,994.07
2016-04-12T07:48:35.909Z,994.03
2016-04-12T07:49:35.959Z,994.09
2016-04-12T07:50:35.995Z,994.06
2016-04-12T07:51:36.015Z,994.1
2016-04-12T07:52:36.050Z,994.08
2016-04-12T07:53:36.090Z,994.14
2016-04-12T07:54:36.114Z,994.17
2016-04-12T07:55:36.139Z,994.15
2016-04-12T07:56:36.163Z,994.17
2016-04-12T07:57:36.188Z,994.19
2016-04-12T07:58:36.208Z,994.21
2016-04-12T07:59:36.229Z,994.23
2016-04-12T08:00:36.250Z,994.22
2016-04-12T08:01:36.285Z,994.22
2016-04-12T08:02:36.306Z,994.22
2016-04-12T08:03:36.325Z,994.21
2016-04-12T08:04:36.345Z,994.23
2016-04-12T08:05:36.363Z,994.23
2016-04-12T08:06:36.382Z,994.22
2016-04-12T08:07:36.402Z,994.23
2016-04-12T08:08:36.425Z,994.23
2016-04-12T08:09:36.444Z,994.29
2016-04-12T08:10:36.477Z,994.27
2016-04-12T08:11:36.497Z,994.23
2016-04-12T08:12:36.515Z,994.28
2016-04-12T08:13:36.533Z,994.29
2016-04-12T08:14:36.556Z,994.33
2016-04-12T08:15:36.575Z,994.29
2016-04-12T08:16:36.594Z,994.28
2016-04-12T08:17:36.612Z,994.31
2016-04-12T08:18:36.630Z,994.31
2016-04-12T08:19:36.663Z,994.29
2016-04-12T08:20:36.683Z,994.29
2016-04-12T08:21:36.700Z,994.32
2016-04-12T08:22:36.719Z,994.29
2016-04-12T08:23:36.737Z,994.34
2016-04-12T08:24:36.756Z,994.29
2016-04-12T08:25:36.790Z,994.31
2016-04-12T08:26:36.807Z,994.26
2016-04-12T08:27:36.826Z,994.26
2016-04-12T08:28:36.844Z,994.25
2016-04-12T08:29:36.863Z,994.27
2016-04-12T08:30:36.882Z,994.26
2016-04-12T08:31:36.915Z,994.21
2016-04-12T08:32:36.934Z,994.24
2016-04-12T08:33:36.951Z,994.23
2016-04-12T08:34:36.970Z,994.25
2016-04-12T08:35:36.988Z,994.25
2016-04-12T08:36:37.007Z,994.22
2016-04-12T08:37:37.040Z,994.25
2016-04-12T08:38:37.059Z,994.28
2016-04-12T08:39:37.078Z,994.25
2016-04-12T08:40:37.096Z,994.31
2016-04-12T08:41:37.114Z,994.26
2016-04-12T08:42:37.148Z,994.26
2016-04-12T08:43:37.167Z,994.25
2016-04-12T08:44:37.184Z,994.25
2016-04-12T08:45:37.203Z,994.25
2016-04-12T08:46:37.222Z,994.26
2016-04-12T08:47:37.239Z,994.29
2016-04-12T08:48:37.258Z,994.27
2016-04-12T08:49:37.292Z,994.24
2016-04-12T08:50:37.310Z,994.22
2016-04-12T08:51:37.328Z,994.22
2016-04-12T08:52:37.347Z,994.22
2016-04-12T08:53:37.380Z,994.21
2016-04-12T08:54:37.399Z,994.2
2016-04-12T08:55:37.417Z,994.19
2016-04-12T08:56:37.436Z,994.2
2016-04-12T08:57:37.454Z,994.19
2016-04-12T08:58:40.504Z,994.22
2016-04-12T09:00:45.027Z,994.19
2016-04-12T09:01:42.043Z,994.22
2016-04-12T09:04:40.926Z,994.21
2016-04-12T09:05:55.509Z,994.19
2016-04-12T09:07:04.481Z,994.22
2016-04-12T09:08:13.484Z,994.22
2016-04-12T09:10:35.072Z,994.33
2016-04-12T09:11:35.090Z,994.33
2016-04-12T09:12:44.111Z,994.34
2016-04-12T09:13:35.127Z,994.37
2016-04-12T09:14:35.145Z,994.36
2016-04-12T09:15:35.163Z,994.35
2016-04-12T09:16:35.181Z,994.34
2016-04-12T09:17:35.216Z,994.36
2016-04-12T09:18:35.312Z,994.35
2016-04-12T09:19:35.252Z,994.37
2016-04-12T09:20:35.271Z,994.39
2016-04-12T09:21:35.288Z,994.35
2016-04-12T09:22:35.322Z,994.35
2016-04-12T09:23:35.341Z,994.33
2016-04-12T09:24:35.360Z,994.34
2016-04-12T09:25:35.393Z,994.31
2016-04-12T09:26:35.396Z,994.27
2016-04-12T09:27:35.430Z,994.29
2016-04-12T09:28:35.448Z,994.29
2016-04-12T09:29:35.466Z,994.29
2016-04-12T09:30:35.485Z,994.29
2016-04-12T09:31:35.504Z,994.33
2016-04-12T09:32:35.521Z,994.34
2016-04-12T09:33:35.587Z,994.32
2016-04-12T09:34:35.574Z,994.32
2016-04-12T09:35:35.593Z,994.39
2016-04-12T09:36:35.610Z,994.37
2016-04-12T09:37:35.629Z,994.41
2016-04-12T09:38:35.662Z,994.39
2016-04-12T09:39:35.681Z,994.38
2016-04-12T09:40:35.700Z,994.35
2016-04-12T09:41:35.718Z,994.34
2016-04-12T09:42:35.736Z,994.3
2016-04-12T09:43:35.770Z,994.33
2016-04-12T09:44:35.788Z,994.3
2016-04-12T09:45:35.806Z,994.31
2016-04-12T09:46:35.825Z,994.28
2016-04-12T09:47:35.859Z,994.25
2016-04-12T09:48:35.924Z,994.32
2016-04-12T09:49:35.895Z,994.33
2016-04-12T09:50:35.914Z,994.24
2016-04-12T09:51:35.947Z,994.23
2016-04-12T09:52:35.965Z,994.23
2016-04-12T09:53:35.984Z,994.25
2016-04-12T09:54:36.003Z,994.15
2016-04-12T09:55:36.036Z,994.16
2016-04-12T09:56:36.055Z,994.1
2016-04-12T09:57:36.073Z,994.12
2016-04-12T09:58:36.107Z,994.1
2016-04-12T09:59:36.126Z,994.13
2016-04-12T10:00:36.144Z,994.17
2016-04-12T10:01:36.163Z,994.15
2016-04-12T10:02:36.212Z,994.11
2016-04-12T10:03:36.261Z,994.17
2016-04-12T10:04:36.232Z,994.17
2016-04-12T10:05:36.251Z,994.17
2016-04-12T10:06:36.269Z,994.13
2016-04-12T10:07:36.304Z,994.08
2016-04-12T10:08:36.321Z,994.07
2016-04-12T10:09:36.356Z,994.13
2016-04-12T10:10:36.358Z,994.11
2016-04-12T10:11:36.376Z,994.14
2016-04-12T10:12:36.411Z,994.1
2016-04-12T10:13:36.428Z,994.06
2016-04-12T10:14:36.447Z,994.11
2016-04-12T10:15:36.464Z,994.1
2016-04-12T10:16:36.500Z,994.08
2016-04-12T10:17:36.517Z,994.11
2016-04-12T10:18:36.583Z,994.14
2016-04-12T10:19:36.569Z,994.14
2016-04-12T10:20:36.588Z,994.18
2016-04-12T10:21:36.606Z,994.19
2016-04-12T10:22:36.625Z,994.19
2016-04-12T10:23:36.659Z,994.22
2016-04-12T10:24:36.661Z,994.21
2016-04-12T10:25:36.695Z,994.24
2016-04-12T10:26:36.713Z,994.25
2016-04-12T10:27:36.732Z,994.25
2016-04-12T10:28:36.766Z,994.23
2016-04-12T10:29:36.784Z,994.28
2016-04-12T10:30:36.802Z,994.27
2016-04-12T10:31:36.837Z,994.29
2016-04-12T10:32:36.854Z,994.29
2016-04-12T10:33:36.873Z,994.31
2016-04-12T10:34:36.891Z,994.33
2016-04-12T10:35:36.909Z,994.33
2016-04-12T10:36:36.944Z,994.31
2016-04-12T10:37:36.978Z,994.31
2016-04-12T10:38:36.981Z,994.32
2016-04-12T10:39:37.029Z,994.33
2016-04-12T10:40:37.032Z,994.32
2016-04-12T10:41:37.050Z,994.28
2016-04-12T10:42:37.069Z,994.23
2016-04-12T10:43:37.088Z,994.23
2016-04-12T10:44:37.122Z,994.21
2016-04-12T10:45:37.140Z,994.21
2016-04-12T10:46:37.158Z,994.16
2016-04-12T10:47:37.192Z,994.16
2016-04-12T10:48:37.211Z,994.17
2016-04-12T10:49:37.229Z,994.17
2016-04-12T10:50:37.247Z,994.15
2016-04-12T10:51:37.280Z,994.14
2016-04-12T10:52:37.300Z,994.17
2016-04-12T10:53:37.333Z,994.15
2016-04-12T10:54:37.352Z,994.14
2016-04-12T10:55:37.370Z,994.1
2016-04-12T10:56:37.388Z,994.14
2016-04-12T10:57:37.407Z,994.14
2016-04-12T10:58:37.440Z,994.1
2016-04-12T10:59:37.458Z,994.17
2016-04-12T11:00:37.477Z,994.12
2016-04-12T11:01:37.510Z,994.13
2016-04-12T11:02:37.529Z,994.11
2016-04-12T11:03:37.548Z,994.11
2016-04-12T11:04:37.565Z,994.12
2016-04-12T11:05:37.599Z,994.09
2016-04-12T11:06:37.618Z,994.01
2016-04-12T11:07:37.636Z,994.02
2016-04-12T11:08:37.670Z,994.03
2016-04-12T11:09:37.690Z,994.04
2016-04-12T11:10:37.707Z,994
2016-04-12T11:11:37.740Z,994.05
2016-04-12T11:12:37.759Z,994.02
2016-04-12T11:13:37.777Z,994.07
2016-04-12T11:14:37.796Z,994.04
2016-04-12T11:15:37.830Z,994.05
2016-04-12T11:16:37.848Z,994.02
2016-04-12T11:17:37.866Z,994.03
2016-04-12T11:18:37.900Z,994.02
2016-04-12T11:19:37.919Z,994.01
2016-04-12T11:20:37.936Z,994
2016-04-12T11:21:37.955Z,993.98
2016-04-12T11:22:37.989Z,993.97
2016-04-12T11:23:38.008Z,993.99
2016-04-12T11:24:38.042Z,994
2016-04-12T11:25:38.044Z,994.05
2016-04-12T11:26:38.078Z,994.04
2016-04-12T11:27:38.096Z,994.04
2016-04-12T11:28:38.115Z,994.03
2016-04-12T11:29:38.149Z,993.99
2016-04-12T11:30:38.167Z,994.01
2016-04-12T11:31:38.186Z,994.02
2016-04-12T11:32:38.218Z,994.01
2016-04-12T11:33:38.238Z,993.97
2016-04-12T11:34:38.257Z,994.03
2016-04-12T11:35:38.274Z,993.98
2016-04-12T11:36:38.308Z,993.98
2016-04-12T11:37:38.326Z,993.95
2016-04-12T11:38:38.345Z,994.01
2016-04-12T11:39:38.362Z,993.94
2016-04-12T11:40:38.397Z,993.98
2016-04-12T11:41:38.415Z,993.97
2016-04-12T11:42:38.448Z,994.03
2016-04-12T11:43:38.467Z,993.98
2016-04-12T11:44:38.487Z,994.02
2016-04-12T11:45:38.504Z,994
2016-04-12T11:46:38.522Z,993.93
2016-04-12T11:47:38.556Z,994.01
2016-04-12T11:48:38.575Z,993.99
2016-04-12T11:49:38.593Z,994.01
2016-04-12T11:50:38.611Z,994.03
2016-04-12T11:51:38.645Z,993.99
2016-04-12T11:52:38.663Z,994
2016-04-12T11:53:38.697Z,994.02
2016-04-12T11:55:38.797Z,994
2016-04-12T11:56:38.783Z,994.01
2016-04-12T11:57:38.786Z,993.96
2016-04-12T11:58:38.805Z,994
2016-04-12T11:59:38.824Z,993.97
2016-04-12T12:00:38.858Z,993.96
2016-04-12T12:01:38.875Z,993.97
2016-04-12T12:02:38.894Z,993.92
2016-04-12T12:03:38.927Z,993.94
2016-04-12T12:04:38.946Z,993.95
2016-04-12T12:05:38.965Z,993.98
2016-04-12T12:06:38.998Z,993.97
2016-04-12T12:07:39.016Z,993.93
2016-04-12T12:08:39.035Z,993.92
2016-04-12T12:09:39.053Z,993.91
2016-04-12T12:10:39.087Z,993.89
2016-04-12T12:11:39.105Z,993.88
2016-04-12T12:12:39.123Z,993.84
2016-04-12T12:13:39.158Z,993.85
2016-04-12T12:14:39.192Z,993.84
2016-04-12T12:15:39.209Z,993.84
2016-04-12T12:16:39.212Z,993.83
2016-04-12T12:17:39.247Z,993.82
2016-04-12T12:18:39.265Z,993.83
2016-04-12T12:19:39.299Z,993.85
2016-04-12T12:20:39.317Z,993.85
2016-04-12T12:21:39.336Z,993.84
2016-04-12T12:22:39.370Z,993.87
2016-04-12T12:23:39.388Z,993.87
2016-04-12T12:24:39.406Z,993.88
2016-04-12T12:25:39.425Z,993.83
2016-04-12T12:26:39.458Z,993.83
2016-04-12T12:27:39.477Z,993.84
2016-04-12T12:28:39.511Z,993.84
2016-04-12T12:29:39.529Z,993.83
2016-04-12T12:30:39.547Z,993.85
2016-04-12T12:31:39.581Z,993.87
2016-04-12T12:32:39.599Z,993.86
2016-04-12T12:33:39.618Z,993.87
2016-04-12T12:34:39.652Z,993.86
2016-04-12T12:35:39.670Z,993.88
2016-04-12T12:36:39.688Z,993.86
2016-04-12T12:37:39.722Z,993.83
2016-04-12T12:38:39.741Z,993.84
2016-04-12T12:39:39.759Z,993.87
2016-04-12T12:40:39.793Z,993.78